sensor_id;sensor_type;location;lat;lon;timestamp;P1;durP1;ratioP1;P2;durP2;ratioP2
60853;SDS011;48554;50.766;2.900;2022-10-13T00:01:40;3.38;;;1.23;;
60853;SDS011;48554;50.766;2.900;2022-10-13T00:04:01;4.53;;;1.73;;
60853;SDS011;48554;50.766;2.900;2022-10-13T00:06:22;4.37;;;1.13;;
60853;SDS011;48554;50.766;2.900;2022-10-13T00:08:44;2.60;;;1.30;;
60853;SDS011;48554;50.766;2.900;2022-10-13T00:11:12;5.53;;;1.90;;
60853;SDS011;48554;50.766;2.900;2022-10-13T00:13:32;1.98;;;1.10;;
60853;SDS011;48554;50.766;2.900;2022-10-13T00:15:53;3.67;;;1.33;;
60853;SDS011;48554;50.766;2.900;2022-10-13T00:18:13;2.50;;;1.20;;
60853;SDS011;48554;50.766;2.900;2022-10-13T00:20:35;3.85;;;1.63;;
60853;SDS011;48554;50.766;2.900;2022-10-13T00:22:59;3.55;;;1.50;;
60853;SDS011;48554;50.766;2.900;2022-10-13T00:25:20;2.83;;;1.23;;
60853;SDS011;48554;50.766;2.900;2022-10-13T00:27:40;2.00;;;1.00;;
60853;SDS011;48554;50.766;2.900;2022-10-13T00:30:00;2.67;;;1.20;;
60853;SDS011;48554;50.766;2.900;2022-10-13T00:32:21;3.95;;;1.65;;
60853;SDS011;48554;50.766;2.900;2022-10-13T00:34:41;1.87;;;1.10;;
60853;SDS011;48554;50.766;2.900;2022-10-13T00:37:01;3.10;;;1.60;;
60853;SDS011;48554;50.766;2.900;2022-10-13T00:39:22;3.70;;;1.52;;
60853;SDS011;48554;50.766;2.900;2022-10-13T00:41:42;2.53;;;1.20;;
60853;SDS011;48554;50.766;2.900;2022-10-13T00:44:51;1.83;;;1.13;;
60853;SDS011;48554;50.766;2.900;2022-10-13T00:47:04;2.60;;;1.35;;
60853;SDS011;48554;50.766;2.900;2022-10-13T00:49:24;4.47;;;1.60;;
60853;SDS011;48554;50.766;2.900;2022-10-13T00:51:45;3.47;;;1.90;;
60853;SDS011;48554;50.766;2.900;2022-10-13T00:54:08;2.70;;;1.20;;
60853;SDS011;48554;50.766;2.900;2022-10-13T00:56:30;2.85;;;1.30;;
60853;SDS011;48554;50.766;2.900;2022-10-13T00:58:51;3.67;;;1.50;;
60853;SDS011;48554;50.766;2.900;2022-10-13T01:01:13;3.22;;;1.27;;
60853;SDS011;48554;50.766;2.900;2022-10-13T01:03:34;3.58;;;1.45;;
60853;SDS011;48554;50.766;2.900;2022-10-13T01:05:56;3.25;;;1.10;;
60853;SDS011;48554;50.766;2.900;2022-10-13T01:08:20;3.60;;;1.20;;
60853;SDS011;48554;50.766;2.900;2022-10-13T01:10:50;2.35;;;1.30;;
60853;SDS011;48554;50.766;2.900;2022-10-13T01:16:23;3.85;;;1.80;;
60853;SDS011;48554;50.766;2.900;2022-10-13T01:18:50;2.90;;;1.23;;
60853;SDS011;48554;50.766;2.900;2022-10-13T01:21:27;3.83;;;1.30;;
60853;SDS011;48554;50.766;2.900;2022-10-13T01:24:09;3.63;;;1.60;;
60853;SDS011;48554;50.766;2.900;2022-10-13T01:32:28;5.05;;;1.77;;
60853;SDS011;48554;50.766;2.900;2022-10-13T01:34:51;2.75;;;1.20;;
60853;SDS011;48554;50.766;2.900;2022-10-13T01:37:21;3.33;;;1.30;;
60853;SDS011;48554;50.766;2.900;2022-10-13T01:40:02;2.67;;;1.20;;
60853;SDS011;48554;50.766;2.900;2022-10-13T01:42:34;2.88;;;1.17;;
60853;SDS011;48554;50.766;2.900;2022-10-13T01:45:01;4.43;;;1.45;;
60853;SDS011;48554;50.766;2.900;2022-10-13T01:47:21;3.00;;;1.73;;
60853;SDS011;48554;50.766;2.900;2022-10-13T01:49:44;2.03;;;1.25;;
60853;SDS011;48554;50.766;2.900;2022-10-13T01:52:07;2.38;;;1.20;;
60853;SDS011;48554;50.766;2.900;2022-10-13T01:54:31;2.95;;;1.40;;
60853;SDS011;48554;50.766;2.900;2022-10-13T01:56:53;2.17;;;1.10;;
60853;SDS011;48554;50.766;2.900;2022-10-13T01:59:14;2.78;;;1.33;;
60853;SDS011;48554;50.766;2.900;2022-10-13T02:04:33;3.90;;;1.75;;
60853;SDS011;48554;50.766;2.900;2022-10-13T02:07:23;4.07;;;1.25;;
60853;SDS011;48554;50.766;2.900;2022-10-13T02:12:48;1.83;;;1.15;;
60853;SDS011;48554;50.766;2.900;2022-10-13T02:15:12;3.72;;;1.40;;
60853;SDS011;48554;50.766;2.900;2022-10-13T02:17:36;2.58;;;1.10;;
60853;SDS011;48554;50.766;2.900;2022-10-13T02:19:58;4.15;;;1.40;;
60853;SDS011;48554;50.766;2.900;2022-10-13T02:22:19;1.83;;;1.10;;
60853;SDS011;48554;50.766;2.900;2022-10-13T02:24:43;5.63;;;1.40;;
60853;SDS011;48554;50.766;2.900;2022-10-13T02:27:04;2.75;;;1.35;;
60853;SDS011;48554;50.766;2.900;2022-10-13T02:29:25;2.05;;;1.33;;
60853;SDS011;48554;50.766;2.900;2022-10-13T02:31:45;3.38;;;1.25;;
60853;SDS011;48554;50.766;2.900;2022-10-13T02:34:06;3.20;;;1.30;;
60853;SDS011;48554;50.766;2.900;2022-10-13T02:36:27;4.07;;;1.53;;
60853;SDS011;48554;50.766;2.900;2022-10-13T02:38:47;2.50;;;1.03;;
60853;SDS011;48554;50.766;2.900;2022-10-13T02:41:07;4.00;;;1.40;;
60853;SDS011;48554;50.766;2.900;2022-10-13T02:43:28;2.47;;;1.10;;
60853;SDS011;48554;50.766;2.900;2022-10-13T02:45:48;1.90;;;1.23;;
60853;SDS011;48554;50.766;2.900;2022-10-13T02:48:09;6.85;;;1.48;;
60853;SDS011;48554;50.766;2.900;2022-10-13T02:50:29;4.32;;;1.42;;
60853;SDS011;48554;50.766;2.900;2022-10-13T02:52:49;1.42;;;1.05;;
60853;SDS011;48554;50.766;2.900;2022-10-13T02:55:10;4.10;;;1.80;;
60853;SDS011;48554;50.766;2.900;2022-10-13T02:57:30;2.60;;;1.60;;
60853;SDS011;48554;50.766;2.900;2022-10-13T02:59:50;4.87;;;1.40;;
60853;SDS011;48554;50.766;2.900;2022-10-13T03:02:10;1.60;;;1.10;;
60853;SDS011;48554;50.766;2.900;2022-10-13T03:04:31;1.65;;;1.17;;
60853;SDS011;48554;50.766;2.900;2022-10-13T03:06:51;2.13;;;1.17;;
60853;SDS011;48554;50.766;2.900;2022-10-13T03:09:11;3.90;;;1.80;;
60853;SDS011;48554;50.766;2.900;2022-10-13T03:11:31;2.72;;;1.20;;
60853;SDS011;48554;50.766;2.900;2022-10-13T03:13:52;3.13;;;1.20;;
60853;SDS011;48554;50.766;2.900;2022-10-13T03:16:12;2.38;;;1.25;;
60853;SDS011;48554;50.766;2.900;2022-10-13T03:18:33;2.53;;;1.27;;
60853;SDS011;48554;50.766;2.900;2022-10-13T03:20:57;1.67;;;1.00;;
60853;SDS011;48554;50.766;2.900;2022-10-13T03:23:18;4.05;;;1.20;;
60853;SDS011;48554;50.766;2.900;2022-10-13T03:25:38;4.63;;;1.30;;
60853;SDS011;48554;50.766;2.900;2022-10-13T03:27:58;3.10;;;1.23;;
60853;SDS011;48554;50.766;2.900;2022-10-13T03:30:19;2.60;;;1.52;;
60853;SDS011;48554;50.766;2.900;2022-10-13T03:32:39;2.90;;;1.40;;
60853;SDS011;48554;50.766;2.900;2022-10-13T03:34:59;4.80;;;1.40;;
60853;SDS011;48554;50.766;2.900;2022-10-13T03:37:19;2.63;;;1.27;;
60853;SDS011;48554;50.766;2.900;2022-10-13T03:39:40;3.00;;;1.53;;
60853;SDS011;48554;50.766;2.900;2022-10-13T03:42:02;2.25;;;1.17;;
60853;SDS011;48554;50.766;2.900;2022-10-13T03:44:22;3.83;;;1.23;;
60853;SDS011;48554;50.766;2.900;2022-10-13T03:46:42;3.88;;;1.27;;
60853;SDS011;48554;50.766;2.900;2022-10-13T03:49:02;2.25;;;1.10;;
60853;SDS011;48554;50.766;2.900;2022-10-13T03:51:23;1.98;;;0.95;;
60853;SDS011;48554;50.766;2.900;2022-10-13T03:53:43;4.57;;;1.63;;
60853;SDS011;48554;50.766;2.900;2022-10-13T03:56:04;4.97;;;1.75;;
60853;SDS011;48554;50.766;2.900;2022-10-13T03:58:25;3.77;;;1.40;;
60853;SDS011;48554;50.766;2.900;2022-10-13T04:00:45;2.40;;;1.20;;
60853;SDS011;48554;50.766;2.900;2022-10-13T04:03:05;2.73;;;1.23;;
60853;SDS011;48554;50.766;2.900;2022-10-13T04:05:26;3.93;;;1.40;;
60853;SDS011;48554;50.766;2.900;2022-10-13T04:07:46;2.90;;;1.30;;
60853;SDS011;48554;50.766;2.900;2022-10-13T04:10:06;2.20;;;1.20;;
60853;SDS011;48554;50.766;2.900;2022-10-13T04:12:27;3.37;;;1.47;;
60853;SDS011;48554;50.766;2.900;2022-10-13T04:14:47;2.37;;;1.20;;
60853;SDS011;48554;50.766;2.900;2022-10-13T04:17:07;4.17;;;1.63;;
60853;SDS011;48554;50.766;2.900;2022-10-13T04:19:27;2.87;;;1.30;;
60853;SDS011;48554;50.766;2.900;2022-10-13T04:21:48;2.17;;;1.27;;
60853;SDS011;48554;50.766;2.900;2022-10-13T04:24:09;3.20;;;1.33;;
60853;SDS011;48554;50.766;2.900;2022-10-13T04:26:32;3.20;;;1.13;;
60853;SDS011;48554;50.766;2.900;2022-10-13T04:28:54;3.38;;;1.40;;
60853;SDS011;48554;50.766;2.900;2022-10-13T04:31:15;2.87;;;1.17;;
60853;SDS011;48554;50.766;2.900;2022-10-13T04:33:36;2.73;;;1.30;;
60853;SDS011;48554;50.766;2.900;2022-10-13T04:35:56;2.92;;;1.38;;
60853;SDS011;48554;50.766;2.900;2022-10-13T04:38:16;2.80;;;1.27;;
60853;SDS011;48554;50.766;2.900;2022-10-13T04:40:37;2.30;;;1.13;;
60853;SDS011;48554;50.766;2.900;2022-10-13T04:42:57;3.13;;;1.00;;
60853;SDS011;48554;50.766;2.900;2022-10-13T04:45:17;2.83;;;1.38;;
60853;SDS011;48554;50.766;2.900;2022-10-13T04:47:37;3.73;;;1.13;;
60853;SDS011;48554;50.766;2.900;2022-10-13T04:49:58;5.03;;;1.30;;
60853;SDS011;48554;50.766;2.900;2022-10-13T04:52:18;2.67;;;1.30;;
60853;SDS011;48554;50.766;2.900;2022-10-13T04:54:38;3.78;;;1.15;;
60853;SDS011;48554;50.766;2.900;2022-10-13T04:56:58;2.47;;;1.13;;
60853;SDS011;48554;50.766;2.900;2022-10-13T04:59:19;4.60;;;1.47;;
60853;SDS011;48554;50.766;2.900;2022-10-13T05:01:39;2.90;;;1.20;;
60853;SDS011;48554;50.766;2.900;2022-10-13T05:03:59;2.92;;;1.52;;
60853;SDS011;48554;50.766;2.900;2022-10-13T05:06:22;2.63;;;1.35;;
60853;SDS011;48554;50.766;2.900;2022-10-13T05:08:44;2.53;;;1.50;;
60853;SDS011;48554;50.766;2.900;2022-10-13T05:11:04;3.90;;;1.70;;
60853;SDS011;48554;50.766;2.900;2022-10-13T05:13:25;4.87;;;1.50;;
60853;SDS011;48554;50.766;2.900;2022-10-13T05:15:46;2.47;;;1.23;;
60853;SDS011;48554;50.766;2.900;2022-10-13T05:18:06;3.80;;;1.48;;
60853;SDS011;48554;50.766;2.900;2022-10-13T05:20:26;3.43;;;1.27;;
60853;SDS011;48554;50.766;2.900;2022-10-13T05:22:47;3.57;;;1.17;;
60853;SDS011;48554;50.766;2.900;2022-10-13T05:25:07;3.13;;;1.38;;
60853;SDS011;48554;50.766;2.900;2022-10-13T05:27:27;4.43;;;1.40;;
60853;SDS011;48554;50.766;2.900;2022-10-13T05:29:47;2.55;;;1.30;;
60853;SDS011;48554;50.766;2.900;2022-10-13T05:32:08;2.77;;;1.20;;
60853;SDS011;48554;50.766;2.900;2022-10-13T05:34:28;3.35;;;1.45;;
60853;SDS011;48554;50.766;2.900;2022-10-13T05:36:48;2.58;;;1.17;;
60853;SDS011;48554;50.766;2.900;2022-10-13T05:39:08;1.93;;;1.30;;
60853;SDS011;48554;50.766;2.900;2022-10-13T05:41:29;2.53;;;1.27;;
60853;SDS011;48554;50.766;2.900;2022-10-13T05:43:50;3.65;;;1.70;;
60853;SDS011;48554;50.766;2.900;2022-10-13T05:46:13;3.38;;;1.50;;
60853;SDS011;48554;50.766;2.900;2022-10-13T05:48:34;5.45;;;1.50;;
60853;SDS011;48554;50.766;2.900;2022-10-13T05:50:55;3.23;;;1.27;;
60853;SDS011;48554;50.766;2.900;2022-10-13T05:53:18;8.50;;;1.55;;
60853;SDS011;48554;50.766;2.900;2022-10-13T05:55:40;7.32;;;2.42;;
60853;SDS011;48554;50.766;2.900;2022-10-13T05:58:00;10.27;;;2.65;;
60853;SDS011;48554;50.766;2.900;2022-10-13T06:00:21;11.43;;;2.63;;
60853;SDS011;48554;50.766;2.900;2022-10-13T06:02:51;9.50;;;2.85;;
60853;SDS011;48554;50.766;2.900;2022-10-13T06:05:17;15.18;;;3.50;;
60853;SDS011;48554;50.766;2.900;2022-10-13T06:07:40;11.20;;;3.50;;
60853;SDS011;48554;50.766;2.900;2022-10-13T06:10:01;7.57;;;2.92;;
60853;SDS011;48554;50.766;2.900;2022-10-13T06:12:22;12.25;;;3.70;;
60853;SDS011;48554;50.766;2.900;2022-10-13T06:14:42;10.25;;;3.25;;
60853;SDS011;48554;50.766;2.900;2022-10-13T06:17:02;9.40;;;3.10;;
60853;SDS011;48554;50.766;2.900;2022-10-13T06:19:23;12.18;;;3.33;;
60853;SDS011;48554;50.766;2.900;2022-10-13T06:21:43;11.90;;;3.40;;
60853;SDS011;48554;50.766;2.900;2022-10-13T06:24:03;11.00;;;3.05;;
60853;SDS011;48554;50.766;2.900;2022-10-13T06:26:24;11.77;;;2.67;;
60853;SDS011;48554;50.766;2.900;2022-10-13T06:28:44;10.33;;;3.10;;
60853;SDS011;48554;50.766;2.900;2022-10-13T06:31:05;9.17;;;2.90;;
60853;SDS011;48554;50.766;2.900;2022-10-13T06:33:25;9.03;;;3.00;;
60853;SDS011;48554;50.766;2.900;2022-10-13T06:35:45;10.47;;;2.90;;
60853;SDS011;48554;50.766;2.900;2022-10-13T06:38:06;10.55;;;2.97;;
60853;SDS011;48554;50.766;2.900;2022-10-13T06:40:26;12.77;;;2.53;;
60853;SDS011;48554;50.766;2.900;2022-10-13T06:42:49;11.93;;;3.10;;
60853;SDS011;48554;50.766;2.900;2022-10-13T06:45:10;14.65;;;3.22;;
60853;SDS011;48554;50.766;2.900;2022-10-13T06:47:30;8.88;;;2.47;;
60853;SDS011;48554;50.766;2.900;2022-10-13T06:49:50;10.57;;;3.07;;
60853;SDS011;48554;50.766;2.900;2022-10-13T06:52:10;8.52;;;3.17;;
60853;SDS011;48554;50.766;2.900;2022-10-13T06:54:31;8.10;;;2.65;;
60853;SDS011;48554;50.766;2.900;2022-10-13T06:56:51;11.38;;;2.90;;
60853;SDS011;48554;50.766;2.900;2022-10-13T06:59:11;8.90;;;2.30;;
60853;SDS011;48554;50.766;2.900;2022-10-13T07:01:32;8.87;;;3.03;;
60853;SDS011;48554;50.766;2.900;2022-10-13T07:03:52;8.68;;;2.80;;
60853;SDS011;48554;50.766;2.900;2022-10-13T07:06:12;7.35;;;2.25;;
60853;SDS011;48554;50.766;2.900;2022-10-13T07:08:33;10.57;;;2.70;;
60853;SDS011;48554;50.766;2.900;2022-10-13T07:10:53;7.30;;;2.67;;
60853;SDS011;48554;50.766;2.900;2022-10-13T07:13:14;8.20;;;2.53;;
60853;SDS011;48554;50.766;2.900;2022-10-13T07:15:37;6.15;;;2.50;;
60853;SDS011;48554;50.766;2.900;2022-10-13T07:17:58;8.88;;;2.80;;
60853;SDS011;48554;50.766;2.900;2022-10-13T07:20:19;9.10;;;2.85;;
60853;SDS011;48554;50.766;2.900;2022-10-13T07:22:40;7.55;;;2.47;;
60853;SDS011;48554;50.766;2.900;2022-10-13T07:25:00;8.02;;;3.15;;
60853;SDS011;48554;50.766;2.900;2022-10-13T07:27:21;8.70;;;2.38;;
60853;SDS011;48554;50.766;2.900;2022-10-13T07:29:42;7.30;;;3.00;;
60853;SDS011;48554;50.766;2.900;2022-10-13T07:32:02;5.38;;;2.20;;
60853;SDS011;48554;50.766;2.900;2022-10-13T07:34:22;6.75;;;2.10;;
60853;SDS011;48554;50.766;2.900;2022-10-13T07:36:42;9.20;;;2.77;;
60853;SDS011;48554;50.766;2.900;2022-10-13T07:39:03;6.63;;;2.13;;
60853;SDS011;48554;50.766;2.900;2022-10-13T07:41:23;5.93;;;2.10;;
60853;SDS011;48554;50.766;2.900;2022-10-13T07:43:43;8.93;;;2.07;;
60853;SDS011;48554;50.766;2.900;2022-10-13T07:46:04;5.07;;;2.00;;
60853;SDS011;48554;50.766;2.900;2022-10-13T07:48:26;5.55;;;1.88;;
60853;SDS011;48554;50.766;2.900;2022-10-13T07:50:46;6.30;;;2.00;;
60853;SDS011;48554;50.766;2.900;2022-10-13T07:53:07;8.80;;;2.55;;
60853;SDS011;48554;50.766;2.900;2022-10-13T07:55:27;5.75;;;2.58;;
60853;SDS011;48554;50.766;2.900;2022-10-13T07:57:47;6.57;;;2.00;;
60853;SDS011;48554;50.766;2.900;2022-10-13T08:00:08;8.70;;;2.17;;
60853;SDS011;48554;50.766;2.900;2022-10-13T08:02:28;8.07;;;2.10;;
60853;SDS011;48554;50.766;2.900;2022-10-13T08:04:49;6.63;;;2.10;;
60853;SDS011;48554;50.766;2.900;2022-10-13T08:07:09;6.83;;;2.07;;
60853;SDS011;48554;50.766;2.900;2022-10-13T08:09:29;5.38;;;2.10;;
60853;SDS011;48554;50.766;2.900;2022-10-13T08:11:50;6.80;;;2.35;;
60853;SDS011;48554;50.766;2.900;2022-10-13T08:14:11;4.87;;;1.90;;
60853;SDS011;48554;50.766;2.900;2022-10-13T08:16:32;6.30;;;2.00;;
60853;SDS011;48554;50.766;2.900;2022-10-13T08:18:52;5.25;;;2.05;;
60853;SDS011;48554;50.766;2.900;2022-10-13T08:21:13;7.03;;;2.10;;
60853;SDS011;48554;50.766;2.900;2022-10-13T08:23:35;7.15;;;2.40;;
60853;SDS011;48554;50.766;2.900;2022-10-13T08:25:55;5.82;;;2.28;;
60853;SDS011;48554;50.766;2.900;2022-10-13T08:28:17;6.22;;;2.10;;
60853;SDS011;48554;50.766;2.900;2022-10-13T08:30:43;5.40;;;2.10;;
60853;SDS011;48554;50.766;2.900;2022-10-13T08:33:04;7.30;;;2.65;;
60853;SDS011;48554;50.766;2.900;2022-10-13T08:35:24;5.80;;;2.15;;
60853;SDS011;48554;50.766;2.900;2022-10-13T08:37:44;8.75;;;2.53;;
60853;SDS011;48554;50.766;2.900;2022-10-13T08:40:05;6.55;;;2.63;;
60853;SDS011;48554;50.766;2.900;2022-10-13T08:42:26;7.90;;;2.25;;
60853;SDS011;48554;50.766;2.900;2022-10-13T08:44:56;5.10;;;2.10;;
60853;SDS011;48554;50.766;2.900;2022-10-13T08:47:22;5.72;;;2.08;;
60853;SDS011;48554;50.766;2.900;2022-10-13T08:49:48;6.50;;;1.90;;
60853;SDS011;48554;50.766;2.900;2022-10-13T08:52:12;6.03;;;2.20;;
60853;SDS011;48554;50.766;2.900;2022-10-13T08:54:36;6.63;;;2.28;;
60853;SDS011;48554;50.766;2.900;2022-10-13T08:56:57;6.10;;;2.20;;
60853;SDS011;48554;50.766;2.900;2022-10-13T08:59:17;6.55;;;2.67;;
60853;SDS011;48554;50.766;2.900;2022-10-13T09:01:39;8.47;;;2.73;;
60853;SDS011;48554;50.766;2.900;2022-10-13T09:06:47;5.30;;;2.35;;
60853;SDS011;48554;50.766;2.900;2022-10-13T09:09:13;5.88;;;2.20;;
60853;SDS011;48554;50.766;2.900;2022-10-13T09:11:35;5.90;;;2.30;;
60853;SDS011;48554;50.766;2.900;2022-10-13T09:13:59;5.93;;;2.70;;
60853;SDS011;48554;50.766;2.900;2022-10-13T09:18:52;8.02;;;2.63;;
60853;SDS011;48554;50.766;2.900;2022-10-13T09:21:17;6.30;;;2.97;;
60853;SDS011;48554;50.766;2.900;2022-10-13T09:23:40;7.78;;;2.78;;
60853;SDS011;48554;50.766;2.900;2022-10-13T09:26:05;6.55;;;2.78;;
60853;SDS011;48554;50.766;2.900;2022-10-13T09:28:28;7.47;;;2.50;;
60853;SDS011;48554;50.766;2.900;2022-10-13T09:30:59;6.93;;;2.72;;
60853;SDS011;48554;50.766;2.900;2022-10-13T09:33:24;5.80;;;2.50;;
60853;SDS011;48554;50.766;2.900;2022-10-13T09:38:18;7.88;;;2.53;;
60853;SDS011;48554;50.766;2.900;2022-10-13T09:40:40;7.22;;;2.80;;
60853;SDS011;48554;50.766;2.900;2022-10-13T09:43:04;5.55;;;2.47;;
60853;SDS011;48554;50.766;2.900;2022-10-13T09:45:37;5.75;;;2.28;;
60853;SDS011;48554;50.766;2.900;2022-10-13T09:48:03;5.47;;;2.38;;
60853;SDS011;48554;50.766;2.900;2022-10-13T09:50:26;5.45;;;2.83;;
60853;SDS011;48554;50.766;2.900;2022-10-13T09:52:49;5.97;;;2.25;;
60853;SDS011;48554;50.766;2.900;2022-10-13T09:57:51;7.55;;;2.60;;
60853;SDS011;48554;50.766;2.900;2022-10-13T10:00:18;6.07;;;2.20;;
60853;SDS011;48554;50.766;2.900;2022-10-13T10:05:53;6.45;;;2.10;;
60853;SDS011;48554;50.766;2.900;2022-10-13T10:08:35;5.28;;;2.30;;
60853;SDS011;48554;50.766;2.900;2022-10-13T10:10:56;7.35;;;2.40;;
60853;SDS011;48554;50.766;2.900;2022-10-13T10:13:19;6.03;;;2.45;;
60853;SDS011;48554;50.766;2.900;2022-10-13T10:15:57;7.55;;;3.17;;
60853;SDS011;48554;50.766;2.900;2022-10-13T10:21:11;5.78;;;2.22;;
60853;SDS011;48554;50.766;2.900;2022-10-13T10:23:46;7.35;;;2.20;;
60853;SDS011;48554;50.766;2.900;2022-10-13T10:26:21;4.75;;;2.25;;
60853;SDS011;48554;50.766;2.900;2022-10-13T10:28:54;5.88;;;2.53;;
60853;SDS011;48554;50.766;2.900;2022-10-13T10:31:18;6.13;;;2.35;;
60853;SDS011;48554;50.766;2.900;2022-10-13T10:33:46;6.25;;;2.35;;
60853;SDS011;48554;50.766;2.900;2022-10-13T10:36:21;5.18;;;2.35;;
60853;SDS011;48554;50.766;2.900;2022-10-13T10:38:48;3.83;;;2.03;;
60853;SDS011;48554;50.766;2.900;2022-10-13T10:46:23;4.40;;;1.98;;
60853;SDS011;48554;50.766;2.900;2022-10-13T10:48:47;6.80;;;2.50;;
60853;SDS011;48554;50.766;2.900;2022-10-13T10:51:12;5.07;;;2.00;;
60853;SDS011;48554;50.766;2.900;2022-10-13T10:56:37;4.60;;;2.28;;
60853;SDS011;48554;50.766;2.900;2022-10-13T11:02:17;5.93;;;2.13;;
60853;SDS011;48554;50.766;2.900;2022-10-13T11:04:45;4.47;;;2.10;;
60853;SDS011;48554;50.766;2.900;2022-10-13T11:14:39;4.05;;;2.03;;
60853;SDS011;48554;50.766;2.900;2022-10-13T11:17:02;4.45;;;2.05;;
60853;SDS011;48554;50.766;2.900;2022-10-13T11:19:32;5.57;;;2.22;;
60853;SDS011;48554;50.766;2.900;2022-10-13T11:26:52;4.25;;;2.03;;
60853;SDS011;48554;50.766;2.900;2022-10-13T11:29:16;6.15;;;2.25;;
60853;SDS011;48554;50.766;2.900;2022-10-13T11:31:48;4.93;;;2.10;;
60853;SDS011;48554;50.766;2.900;2022-10-13T11:37:16;5.10;;;2.35;;
60853;SDS011;48554;50.766;2.900;2022-10-13T11:39:44;6.05;;;2.22;;
60853;SDS011;48554;50.766;2.900;2022-10-13T11:45:12;5.05;;;2.22;;
60853;SDS011;48554;50.766;2.900;2022-10-13T11:53:32;4.15;;;1.95;;
60853;SDS011;48554;50.766;2.900;2022-10-13T11:56:01;5.45;;;2.10;;
60853;SDS011;48554;50.766;2.900;2022-10-13T11:58:23;3.85;;;1.73;;
60853;SDS011;48554;50.766;2.900;2022-10-13T12:00:55;5.45;;;2.40;;
60853;SDS011;48554;50.766;2.900;2022-10-13T12:03:22;3.53;;;1.58;;
60853;SDS011;48554;50.766;2.900;2022-10-13T12:05:46;4.65;;;1.90;;
60853;SDS011;48554;50.766;2.900;2022-10-13T12:08:09;6.10;;;1.83;;
60853;SDS011;48554;50.766;2.900;2022-10-13T12:10:33;4.43;;;1.98;;
60853;SDS011;48554;50.766;2.900;2022-10-13T12:12:55;4.35;;;1.80;;
60853;SDS011;48554;50.766;2.900;2022-10-13T12:15:54;4.25;;;1.70;;
60853;SDS011;48554;50.766;2.900;2022-10-13T12:18:20;3.42;;;1.88;;
60853;SDS011;48554;50.766;2.900;2022-10-13T12:20:43;2.42;;;1.48;;
60853;SDS011;48554;50.766;2.900;2022-10-13T12:23:13;3.90;;;1.40;;
60853;SDS011;48554;50.766;2.900;2022-10-13T12:25:36;3.30;;;1.83;;
60853;SDS011;48554;50.766;2.900;2022-10-13T12:27:57;3.80;;;1.55;;
60853;SDS011;48554;50.766;2.900;2022-10-13T12:30:23;4.68;;;1.90;;
60853;SDS011;48554;50.766;2.900;2022-10-13T12:32:52;3.50;;;1.67;;
60853;SDS011;48554;50.766;2.900;2022-10-13T12:35:16;3.58;;;1.67;;
60853;SDS011;48554;50.766;2.900;2022-10-13T12:37:42;3.13;;;1.60;;
60853;SDS011;48554;50.766;2.900;2022-10-13T12:40:02;4.53;;;1.98;;
60853;SDS011;48554;50.766;2.900;2022-10-13T12:42:25;3.17;;;1.75;;
60853;SDS011;48554;50.766;2.900;2022-10-13T12:44:49;5.10;;;2.10;;
60853;SDS011;48554;50.766;2.900;2022-10-13T12:50:18;3.97;;;1.90;;
60853;SDS011;48554;50.766;2.900;2022-10-13T12:52:40;4.95;;;2.05;;
60853;SDS011;48554;50.766;2.900;2022-10-13T12:55:01;5.15;;;1.92;;
60853;SDS011;48554;50.766;2.900;2022-10-13T12:57:25;4.70;;;1.77;;
60853;SDS011;48554;50.766;2.900;2022-10-13T12:59:56;5.10;;;1.88;;
60853;SDS011;48554;50.766;2.900;2022-10-13T13:02:24;4.88;;;1.88;;
60853;SDS011;48554;50.766;2.900;2022-10-13T13:04:47;4.18;;;1.70;;
60853;SDS011;48554;50.766;2.900;2022-10-13T13:10:00;4.07;;;1.70;;
60853;SDS011;48554;50.766;2.900;2022-10-13T13:12:27;3.10;;;1.83;;
60853;SDS011;48554;50.766;2.900;2022-10-13T13:14:49;4.13;;;1.75;;
60853;SDS011;48554;50.766;2.900;2022-10-13T13:19:31;4.78;;;1.90;;
60853;SDS011;48554;50.766;2.900;2022-10-13T13:21:52;4.30;;;1.70;;
60853;SDS011;48554;50.766;2.900;2022-10-13T13:24:13;2.85;;;1.33;;
60853;SDS011;48554;50.766;2.900;2022-10-13T13:26:33;3.47;;;1.90;;
60853;SDS011;48554;50.766;2.900;2022-10-13T13:28:53;4.03;;;1.60;;
60853;SDS011;48554;50.766;2.900;2022-10-13T13:31:16;3.20;;;1.52;;
60853;SDS011;48554;50.766;2.900;2022-10-13T13:33:37;4.10;;;1.73;;
60853;SDS011;48554;50.766;2.900;2022-10-13T13:35:58;3.30;;;1.50;;
60853;SDS011;48554;50.766;2.900;2022-10-13T13:38:18;5.07;;;1.80;;
60853;SDS011;48554;50.766;2.900;2022-10-13T13:40:39;3.30;;;1.75;;
60853;SDS011;48554;50.766;2.900;2022-10-13T13:42:59;3.45;;;1.88;;
60853;SDS011;48554;50.766;2.900;2022-10-13T13:45:20;2.93;;;1.37;;
60853;SDS011;48554;50.766;2.900;2022-10-13T13:47:42;3.88;;;1.70;;
60853;SDS011;48554;50.766;2.900;2022-10-13T13:50:02;3.47;;;1.45;;
60853;SDS011;48554;50.766;2.900;2022-10-13T13:52:24;4.78;;;1.40;;
60853;SDS011;48554;50.766;2.900;2022-10-13T13:54:44;2.92;;;1.52;;
60853;SDS011;48554;50.766;2.900;2022-10-13T13:57:05;2.37;;;1.30;;
60853;SDS011;48554;50.766;2.900;2022-10-13T13:59:25;2.87;;;1.10;;
60853;SDS011;48554;50.766;2.900;2022-10-13T14:01:45;3.60;;;1.38;;
60853;SDS011;48554;50.766;2.900;2022-10-13T14:04:06;3.67;;;1.50;;
60853;SDS011;48554;50.766;2.900;2022-10-13T14:06:26;2.27;;;1.37;;
60853;SDS011;48554;50.766;2.900;2022-10-13T14:08:46;2.63;;;1.33;;
60853;SDS011;48554;50.766;2.900;2022-10-13T14:11:07;4.47;;;1.67;;
60853;SDS011;48554;50.766;2.900;2022-10-13T14:13:27;4.83;;;1.50;;
60853;SDS011;48554;50.766;2.900;2022-10-13T14:15:57;2.90;;;1.13;;
60853;SDS011;48554;50.766;2.900;2022-10-13T14:18:19;3.90;;;1.27;;
60853;SDS011;48554;50.766;2.900;2022-10-13T14:20:39;3.47;;;1.40;;
60853;SDS011;48554;50.766;2.900;2022-10-13T14:23:00;3.07;;;1.40;;
60853;SDS011;48554;50.766;2.900;2022-10-13T14:25:20;2.80;;;1.40;;
60853;SDS011;48554;50.766;2.900;2022-10-13T14:27:40;1.97;;;1.07;;
60853;SDS011;48554;50.766;2.900;2022-10-13T14:30:01;3.27;;;1.50;;
60853;SDS011;48554;50.766;2.900;2022-10-13T14:32:25;1.77;;;1.05;;
60853;SDS011;48554;50.766;2.900;2022-10-13T14:34:45;1.83;;;1.13;;
60853;SDS011;48554;50.766;2.900;2022-10-13T14:37:05;2.78;;;1.40;;
60853;SDS011;48554;50.766;2.900;2022-10-13T14:39:25;1.83;;;1.20;;
60853;SDS011;48554;50.766;2.900;2022-10-13T14:41:46;2.60;;;1.17;;
60853;SDS011;48554;50.766;2.900;2022-10-13T14:44:06;2.00;;;1.20;;
60853;SDS011;48554;50.766;2.900;2022-10-13T14:46:29;3.15;;;1.40;;
60853;SDS011;48554;50.766;2.900;2022-10-13T14:48:49;2.60;;;1.25;;
60853;SDS011;48554;50.766;2.900;2022-10-13T14:51:10;4.55;;;1.70;;
60853;SDS011;48554;50.766;2.900;2022-10-13T14:53:41;4.25;;;1.40;;
60853;SDS011;48554;50.766;2.900;2022-10-13T14:56:03;3.33;;;1.38;;
60853;SDS011;48554;50.766;2.900;2022-10-13T14:58:33;3.58;;;1.30;;
60853;SDS011;48554;50.766;2.900;2022-10-13T15:00:55;2.15;;;1.13;;
60853;SDS011;48554;50.766;2.900;2022-10-13T15:03:16;3.97;;;1.10;;
60853;SDS011;48554;50.766;2.900;2022-10-13T15:05:36;3.92;;;1.25;;
60853;SDS011;48554;50.766;2.900;2022-10-13T15:07:57;2.23;;;1.10;;
60853;SDS011;48554;50.766;2.900;2022-10-13T15:10:17;3.63;;;1.50;;
60853;SDS011;48554;50.766;2.900;2022-10-13T15:12:37;3.42;;;1.25;;
60853;SDS011;48554;50.766;2.900;2022-10-13T15:14:58;4.75;;;1.33;;
60853;SDS011;48554;50.766;2.900;2022-10-13T15:17:18;3.10;;;1.20;;
60853;SDS011;48554;50.766;2.900;2022-10-13T15:19:38;1.92;;;1.20;;
60853;SDS011;48554;50.766;2.900;2022-10-13T15:21:58;2.80;;;1.50;;
60853;SDS011;48554;50.766;2.900;2022-10-13T15:24:19;3.47;;;1.30;;
60853;SDS011;48554;50.766;2.900;2022-10-13T15:26:39;2.88;;;1.13;;
60853;SDS011;48554;50.766;2.900;2022-10-13T15:28:59;3.42;;;1.27;;
60853;SDS011;48554;50.766;2.900;2022-10-13T15:31:20;2.40;;;1.30;;
60853;SDS011;48554;50.766;2.900;2022-10-13T15:33:42;2.92;;;1.25;;
60853;SDS011;48554;50.766;2.900;2022-10-13T15:36:03;2.65;;;1.45;;